Time;durP1;ratioP1;P1;durP2;ratioP2;P2;SDS_P1;SDS_P2;PMS_P1;PMS_P2;Temp;Humidity;BMP_temperature;BMP_pressure;BME280_temperature;BME280_humidity;BME280_pressure;Samples;Min_cycle;Max_cycle;Signal;HPM_P1;HPM_P2
2023/05/03 00:02:15;;;;;;;0.68;0.40;;;;;;;20.08;41.76;102638.41;19884844;29;20407;-64
2023/05/03 00:12:17;;;;;;;0.55;0.40;;;;;;;20.06;41.57;102645.75;19883644;29;20752;-64
2023/05/03 00:22:19;;;;;;;1.30;0.40;;;;;;;20.04;41.43;102646.81;19882722;29;20138;-64
2023/05/03 00:32:21;;;;;;;0.40;0.40;;;;;;;20.00;41.48;102657.00;19887470;29;20047;-64
2023/05/03 00:42:23;;;;;;;0.55;0.40;;;;;;;19.99;41.60;102660.69;19900179;29;20078;-64
2023/05/03 00:52:26;;;;;;;0.68;0.40;;;;;;;19.92;41.64;102645.88;19872493;29;20053;-64
2023/05/03 01:02:28;;;;;;;0.40;0.30;;;;;;;19.95;41.81;102659.16;19884683;29;20090;-64
2023/05/03 01:12:40;;;;;;;0.20;0.20;;;;;;;19.92;41.82;102645.88;19861883;29;20137;-64
2023/05/03 01:22:48;;;;;;;0.40;0.32;;;;;;;19.91;41.65;102646.84;19862611;29;20058;-64
2023/05/03 01:33:02;;;;;;;0.75;0.55;;;;;;;19.89;41.93;102649.59;19882137;29;20079;-64
2023/05/03 01:43:05;;;;;;;0.73;0.50;;;;;;;19.88;41.68;102647.88;19874583;29;20055;-64
2023/05/03 01:53:06;;;;;;;0.50;0.30;;;;;;;19.85;41.87;102651.63;19881188;29;20122;-64
2023/05/03 02:03:08;;;;;;;1.55;0.40;;;;;;;19.85;41.67;102646.22;19883573;29;20086;-64
2023/05/03 02:13:10;;;;;;;0.73;0.50;;;;;;;19.86;41.49;102644.41;19867747;29;20074;-64
2023/05/03 02:23:12;;;;;;;1.05;0.30;;;;;;;19.84;41.43;102647.19;19891871;29;20070;-64
2023/05/03 02:33:14;;;;;;;1.38;0.40;;;;;;;19.80;41.30;102637.59;19890397;29;20058;-64
2023/05/03 02:43:16;;;;;;;1.60;0.50;;;;;;;19.78;41.58;102641.38;19850512;29;20427;-64
2023/05/03 02:53:17;;;;;;;1.05;0.57;;;;;;;19.74;42.17;102635.31;19865964;29;20066;-64
2023/05/03 03:03:19;;;;;;;1.00;0.40;;;;;;;19.72;42.07;102626.44;19875464;29;20405;-64
2023/05/03 03:13:21;;;;;;;0.40;0.30;;;;;;;19.71;41.98;102622.00;19876843;29;20047;-64
2023/05/03 03:23:23;;;;;;;0.55;0.40;;;;;;;19.70;41.87;102606.78;19882714;29;20051;-64
2023/05/03 03:33:25;;;;;;;0.65;0.40;;;;;;;19.68;41.46;102596.09;19886785;29;20050;-64
2023/05/03 03:43:32;;;;;;;1.42;0.43;;;;;;;19.67;41.43;102588.06;19874810;29;20089;-64
2023/05/03 03:53:37;;;;;;;0.55;0.35;;;;;;;19.63;41.10;102600.06;19873091;29;20145;-64
2023/05/03 04:03:39;;;;;;;0.68;0.40;;;;;;;19.60;40.89;102611.09;19857280;29;20579;-64
2023/05/03 04:13:42;;;;;;;0.93;0.60;;;;;;;19.55;40.75;102620.38;19876617;29;20047;-64
2023/05/03 04:23:44;;;;;;;0.38;0.30;;;;;;;19.54;40.53;102631.28;19867735;29;20055;-64
2023/05/03 04:33:48;;;;;;;0.60;0.40;;;;;;;19.51;40.63;102645.88;19882529;29;20055;-64
2023/05/03 04:43:50;;;;;;;1.02;0.47;;;;;;;19.49;40.33;102663.16;19887654;29;20043;-64
2023/05/03 04:53:52;;;;;;;1.13;0.40;;;;;;;19.49;40.49;102665.84;19872287;29;20055;-64
2023/05/03 05:03:56;;;;;;;1.10;0.80;;;;;;;19.47;40.47;102667.78;19861385;29;20059;-64
2023/05/03 05:14:05;;;;;;;0.50;0.30;;;;;;;19.46;40.91;102677.75;19851363;29;20054;-64
2023/05/03 05:24:07;;;;;;;0.50;0.38;;;;;;;19.44;41.09;102685.06;19897381;29;20051;-64
2023/05/03 05:34:10;;;;;;;0.40;0.40;;;;;;;19.44;41.22;102692.31;19881105;29;20074;-64
2023/05/03 05:44:12;;;;;;;0.65;0.30;;;;;;;19.44;41.37;102695.00;19872263;29;20050;-64
2023/05/03 05:54:15;;;;;;;0.73;0.40;;;;;;;19.47;41.72;102692.09;19850974;29;20577;-66
2023/05/03 06:04:17;;;;;;;0.77;0.40;;;;;;;19.52;41.90;102700.75;19846022;29;20078;-66
2023/05/03 06:14:19;;;;;;;0.88;0.40;;;;;;;19.54;42.36;102705.09;19892069;29;20055;-66
2023/05/03 06:24:22;;;;;;;0.43;0.30;;;;;;;19.58;42.65;102713.00;19862127;29;20058;-67
2023/05/03 06:34:27;;;;;;;0.30;0.30;;;;;;;19.62;42.50;102717.22;19867348;29;20584;-65
2023/05/03 06:44:30;;;;;;;0.60;0.30;;;;;;;19.63;42.72;102708.13;19851583;29;20086;-64
2023/05/03 06:54:31;;;;;;;1.75;0.40;;;;;;;19.66;43.32;102716.03;19876808;29;20074;-65
2023/05/03 07:04:33;;;;;;;0.40;0.30;;;;;;;19.79;43.35;102705.28;19891576;29;20091;-64
2023/05/03 07:14:35;;;;;;;0.80;0.40;;;;;;;19.98;43.32;102704.91;19873041;29;20059;-64
2023/05/03 07:24:37;;;;;;;0.60;0.40;;;;;;;20.07;43.48;102701.56;19864584;29;20100;-64
2023/05/03 07:34:38;;;;;;;1.83;0.40;;;;;;;20.09;43.79;102699.59;19863810;29;20050;-64
2023/05/03 07:44:40;;;;;;;0.70;0.40;;;;;;;20.13;44.44;102692.16;19870182;29;20073;-64
2023/05/03 16:40:20;;;;;;;0.93;0.70;;;;;;;21.04;45.14;102396.91;19895358;29;20548;-65
2023/05/03 16:50:23;;;;;;;1.20;0.77;;;;;;;20.96;44.75;102395.66;19878480;29;20569;-67
2023/05/03 17:00:24;;;;;;;1.80;0.95;;;;;;;20.93;44.49;102378.78;19859108;29;20086;-66
2023/05/03 17:10:27;;;;;;;1.98;0.90;;;;;;;20.89;44.41;102371.91;19853121;29;20058;-66
2023/05/03 17:20:29;;;;;;;2.58;1.38;;;;;;;20.85;44.38;102364.00;19865270;29;20046;-66
2023/05/03 17:30:31;;;;;;;1.35;0.80;;;;;;;20.82;44.36;102371.53;19861624;29;20051;-66
2023/05/03 17:40:33;;;;;;;1.02;0.73;;;;;;;20.79;44.51;102363.66;19872698;29;20090;-67
2023/05/03 17:50:35;;;;;;;1.67;0.88;;;;;;;20.70;44.78;102374.16;19871929;29;20397;-67
2023/05/03 18:00:38;;;;;;;2.13;0.80;;;;;;;20.66;44.54;102351.03;19855671;29;20063;-66
2023/05/03 18:10:41;;;;;;;2.03;1.30;;;;;;;20.61;45.27;102357.78;19896871;29;20051;-66
2023/05/03 18:20:43;;;;;;;1.38;0.70;;;;;;;20.68;46.34;102353.63;19903820;29;20073;-67
2023/05/03 18:30:45;;;;;;;1.17;0.82;;;;;;;20.69;47.59;102358.91;19871048;29;20101;-67
2023/05/03 18:40:48;;;;;;;0.90;0.60;;;;;;;20.71;48.45;102356.09;19896021;29;20051;-67
2023/05/03 18:50:49;;;;;;;2.65;0.95;;;;;;;20.73;49.17;102362.25;19889078;29;20054;-67
2023/05/03 19:00:51;;;;;;;1.17;0.80;;;;;;;20.72;49.34;102364.06;19865199;29;20085;-67
2023/05/03 19:10:52;;;;;;;1.13;0.70;;;;;;;20.71;48.99;102375.88;19899964;29;20178;-67
2023/05/03 19:20:55;;;;;;;1.83;1.20;;;;;;;20.70;48.40;102379.56;19899993;29;20058;-66
2023/05/03 19:30:56;;;;;;;1.52;1.00;;;;;;;20.68;50.40;102380.69;19888779;29;20428;-66
2023/05/03 19:40:58;;;;;;;1.25;0.95;;;;;;;20.65;50.60;102379.06;19899256;29;20057;-66
2023/05/03 19:51:03;;;;;;;1.42;0.90;;;;;;;20.62;50.32;102398.25;19872262;29;20049;-66
2023/05/03 20:01:06;;;;;;;2.43;1.27;;;;;;;20.53;49.80;102388.13;19881434;29;20559;-67
2023/05/03 20:11:07;;;;;;;1.83;1.00;;;;;;;20.57;49.13;102403.16;19895717;29;20074;-66
2023/05/03 20:21:09;;;;;;;1.38;1.05;;;;;;;20.53;48.80;102405.22;19881775;29;20051;-67
2023/05/03 20:31:10;;;;;;;1.70;1.00;;;;;;;20.51;48.27;102400.91;19882166;29;20109;-67
2023/05/03 20:41:12;;;;;;;1.52;1.00;;;;;;;20.48;47.78;102395.75;19892977;29;20495;-67
2023/05/03 20:51:14;;;;;;;1.30;1.10;;;;;;;20.47;47.45;102388.63;19864623;29;20185;-66
2023/05/03 21:01:16;;;;;;;1.10;1.00;;;;;;;20.43;46.97;102380.72;19868828;29;20073;-66
2023/05/03 21:11:18;;;;;;;0.73;0.65;;;;;;;20.39;46.80;102381.94;19863011;29;20517;-66
2023/05/03 21:21:19;;;;;;;1.02;0.80;;;;;;;20.35;46.33;102380.47;19868510;29;20050;-66
2023/05/03 21:31:21;;;;;;;1.00;0.90;;;;;;;20.32;46.19;102374.41;19867042;29;20055;-67
2023/05/03 21:41:23;;;;;;;0.77;0.70;;;;;;;20.28;45.82;102373.75;19898610;29;20101;-66
2023/05/03 21:51:24;;;;;;;0.82;0.60;;;;;;;20.23;45.60;102362.44;19878359;29;20123;-67
2023/05/03 22:01:26;;;;;;;0.85;0.80;;;;;;;20.19;45.29;102363.66;19867408;29;20462;-66
2023/05/03 22:11:28;;;;;;;0.90;0.70;;;;;;;20.14;45.36;102351.34;19916456;29;20054;-66
2023/05/03 22:21:30;;;;;;;0.75;0.75;;;;;;;20.11;45.22;102345.31;19891774;29;20415;-66
2023/05/03 22:31:32;;;;;;;1.13;0.80;;;;;;;20.08;45.04;102334.72;19890442;29;20093;-66
2023/05/03 22:41:35;;;;;;;0.60;0.60;;;;;;;20.09;44.72;102337.31;19892894;29;20681;-66
2023/05/03 22:51:37;;;;;;;1.90;0.90;;;;;;;20.08;44.78;102329.31;19882963;29;20530;-66
2023/05/03 23:01:39;;;;;;;1.20;0.85;;;;;;;20.05;44.58;102319.59;19871532;29;20055;-66
2023/05/03 23:11:41;;;;;;;0.88;0.70;;;;;;;20.02;44.31;102311.72;19875324;29;20061;-66
2023/05/03 23:21:43;;;;;;;0.60;0.60;;;;;;;19.98;44.20;102299.44;19875762;29;20047;-66
2023/05/03 23:31:44;;;;;;;0.98;0.73;;;;;;;19.95;44.17;102296.97;19878144;29;20078;-66
2023/05/03 23:41:46;;;;;;;0.80;0.60;;;;;;;19.97;43.94;102303.13;19887900;29;20055;-67
2023/05/03 23:51:49;;;;;;;1.30;0.85;;;;;;;19.94;43.78;102290.69;19878219;29;20128;-66
